createdAt,value
2023-01-13T00:01:08.540Z,18.30
2023-01-13T00:03:35.709Z,18.30
2023-01-13T00:06:02.577Z,18.30
2023-01-13T00:08:29.398Z,18.20
2023-01-13T00:10:56.219Z,18.20
2023-01-13T00:13:26.819Z,18.20
2023-01-13T00:16:00.768Z,18.30
2023-01-13T00:18:28.129Z,18.30
2023-01-13T00:21:01.961Z,18.40
2023-01-13T00:23:30.013Z,18.40
2023-01-13T00:25:57.765Z,18.20
2023-01-13T00:28:24.760Z,18.30
2023-01-13T00:30:51.696Z,18.40
2023-01-13T00:33:18.769Z,18.40
2023-01-13T00:35:45.591Z,18.40
2023-01-13T00:38:12.468Z,18.60
2023-01-13T00:40:39.325Z,18.40
2023-01-13T00:43:24.293Z,18.40
2023-01-13T00:45:51.796Z,18.40
2023-01-13T00:48:19.419Z,18.50
2023-01-13T00:50:46.667Z,18.40
2023-01-13T00:53:14.970Z,18.40
2023-01-13T00:55:41.772Z,18.60
2023-01-13T00:58:08.655Z,18.50
2023-01-13T01:00:35.638Z,18.50
2023-01-13T01:03:02.641Z,18.30
2023-01-13T01:05:29.515Z,18.30
2023-01-13T01:07:56.383Z,18.30
2023-01-13T01:10:23.258Z,18.60
2023-01-13T01:12:51.104Z,18.60
2023-01-13T01:15:18.067Z,18.60
2023-01-13T01:17:44.934Z,18.70
2023-01-13T01:20:11.882Z,18.60
2023-01-13T01:22:38.702Z,18.60
2023-01-13T01:25:05.751Z,18.70
2023-01-13T01:27:32.739Z,18.50
2023-01-13T01:29:59.528Z,18.50
2023-01-13T01:32:26.323Z,18.70
2023-01-13T01:34:53.129Z,18.60
2023-01-13T01:37:20.009Z,18.70
2023-01-13T01:39:46.797Z,18.60
2023-01-13T01:42:34.271Z,18.60
2023-01-13T01:45:02.773Z,18.50
2023-01-13T01:47:30.841Z,18.60
2023-01-13T01:49:58.515Z,18.40
2023-01-13T01:52:37.436Z,18.50
2023-01-13T01:55:10.459Z,18.50
2023-01-13T01:57:37.301Z,18.60
2023-01-13T02:00:04.809Z,18.70
2023-01-13T02:02:32.264Z,18.60
2023-01-13T02:04:59.338Z,18.60
2023-01-13T02:07:30.849Z,18.60
2023-01-13T02:09:58.975Z,18.70
2023-01-13T02:12:32.716Z,18.60
2023-01-13T02:15:04.385Z,18.70
2023-01-13T02:17:49.760Z,18.70
2023-01-13T02:20:43.039Z,18.70
2023-01-13T02:23:51.544Z,18.70
2023-01-13T02:26:18.340Z,18.70
2023-01-13T02:29:09.911Z,18.80
2023-01-13T02:31:43.521Z,18.80
2023-01-13T02:34:13.799Z,18.80
2023-01-13T02:36:43.686Z,18.80
2023-01-13T02:39:14.370Z,18.70
2023-01-13T02:42:18.935Z,18.80
2023-01-13T02:44:48.082Z,18.80
2023-01-13T02:47:20.601Z,18.80
2023-01-13T02:49:52.889Z,18.80
2023-01-13T02:52:19.908Z,19.00
2023-01-13T02:54:52.164Z,19.00
2023-01-13T02:57:20.787Z,18.90
2023-01-13T02:59:47.993Z,18.90
2023-01-13T03:02:18.598Z,19.00
2023-01-13T03:04:50.097Z,19.00
2023-01-13T03:07:22.651Z,19.00
2023-01-13T03:09:54.738Z,19.00
2023-01-13T03:12:27.446Z,19.00
2023-01-13T03:14:57.533Z,19.20
2023-01-13T03:17:29.882Z,18.90
2023-01-13T03:20:12.294Z,19.00
2023-01-13T03:22:48.097Z,19.00
2023-01-13T03:25:18.009Z,19.00
2023-01-13T03:27:47.638Z,19.30
2023-01-13T03:30:43.010Z,19.00
2023-01-13T03:33:22.421Z,19.00
2023-01-13T03:35:51.186Z,18.80
2023-01-13T03:38:23.405Z,19.00
2023-01-13T03:40:51.292Z,19.00
2023-01-13T03:43:39.118Z,19.20
2023-01-13T03:46:12.044Z,19.00
2023-01-13T03:48:41.093Z,18.90
2023-01-13T03:51:10.948Z,18.90
2023-01-13T03:53:39.061Z,19.00
2023-01-13T03:56:09.861Z,19.00
2023-01-13T03:58:39.038Z,19.00
2023-01-13T04:01:10.038Z,19.00
2023-01-13T04:03:42.751Z,19.00
2023-01-13T04:06:15.167Z,19.00
2023-01-13T04:08:44.447Z,19.00
2023-01-13T04:11:14.513Z,19.00
2023-01-13T04:13:42.107Z,19.10
2023-01-13T04:16:10.213Z,19.00
2023-01-13T04:18:37.432Z,19.00
2023-01-13T04:21:04.340Z,19.00
2023-01-13T04:23:30.922Z,18.90
2023-01-13T04:25:57.525Z,19.10
2023-01-13T04:28:24.497Z,18.90
2023-01-13T04:30:51.114Z,18.90
2023-01-13T04:33:18.499Z,19.00
2023-01-13T04:35:45.979Z,19.00
2023-01-13T04:38:13.887Z,19.00
2023-01-13T04:40:41.271Z,19.10
2023-01-13T04:43:08.121Z,18.90
2023-01-13T04:45:34.812Z,19.10
2023-01-13T04:48:01.639Z,18.90
2023-01-13T04:50:28.416Z,18.90
2023-01-13T04:52:55.335Z,18.90
2023-01-13T04:55:22.639Z,18.80
2023-01-13T04:57:49.254Z,18.90
2023-01-13T05:00:17.407Z,18.80
2023-01-13T05:02:44.111Z,18.90
2023-01-13T05:05:11.053Z,18.90
2023-01-13T05:07:37.848Z,19.00
2023-01-13T05:10:04.868Z,18.90
2023-01-13T05:12:50.271Z,18.90
2023-01-13T05:15:35.663Z,19.20
2023-01-13T05:18:02.526Z,18.90
2023-01-13T05:20:29.138Z,18.90
2023-01-13T05:23:14.584Z,18.90
2023-01-13T05:25:44.217Z,18.90
2023-01-13T05:28:11.059Z,19.00
2023-01-13T05:30:38.898Z,19.10
2023-01-13T05:33:05.466Z,19.20
2023-01-13T05:35:32.137Z,19.10
2023-01-13T05:37:58.757Z,19.00
2023-01-13T05:40:44.020Z,19.00
2023-01-13T05:43:21.273Z,18.80
2023-01-13T05:45:49.089Z,19.00
2023-01-13T05:48:16.105Z,19.10
2023-01-13T05:50:42.956Z,19.10
2023-01-13T05:53:09.582Z,19.10
2023-01-13T05:55:38.366Z,19.00
2023-01-13T05:58:04.933Z,19.00
2023-01-13T06:00:31.531Z,19.10
2023-01-13T06:02:58.165Z,19.10
2023-01-13T06:05:24.755Z,19.00
2023-01-13T06:07:51.447Z,19.00
2023-01-13T06:10:18.111Z,19.10
2023-01-13T06:12:44.895Z,19.00
2023-01-13T06:15:11.457Z,19.00
2023-01-13T06:17:38.176Z,18.90
2023-01-13T06:20:04.944Z,18.80
2023-01-13T06:22:32.913Z,18.80
2023-01-13T06:24:59.589Z,18.80
2023-01-13T06:27:26.212Z,18.80
2023-01-13T06:29:52.773Z,18.80
2023-01-13T06:32:21.760Z,19.10
2023-01-13T06:34:53.195Z,18.80
2023-01-13T06:37:21.558Z,18.80
2023-01-13T06:39:48.712Z,18.80
2023-01-13T06:42:34.098Z,18.80
2023-01-13T06:45:00.683Z,18.70
2023-01-13T06:47:27.269Z,18.70
2023-01-13T06:49:53.851Z,18.90
2023-01-13T06:52:20.788Z,18.70
2023-01-13T06:54:47.376Z,18.70
2023-01-13T06:57:13.923Z,18.70
2023-01-13T06:59:40.615Z,18.80
2023-01-13T07:02:07.315Z,18.70
2023-01-13T07:04:33.971Z,18.70
2023-01-13T07:07:00.699Z,18.70
2023-01-13T07:09:27.279Z,18.70
2023-01-13T07:11:53.892Z,18.70
2023-01-13T07:14:39.471Z,18.70
2023-01-13T07:17:06.099Z,18.80
2023-01-13T07:19:32.750Z,18.60
2023-01-13T07:21:59.403Z,18.70
2023-01-13T07:24:26.075Z,18.70
2023-01-13T07:26:52.738Z,18.60
2023-01-13T07:29:19.429Z,18.70
2023-01-13T07:31:47.646Z,18.50
2023-01-13T07:34:16.415Z,18.60
2023-01-13T07:36:42.957Z,18.60
2023-01-13T07:39:09.714Z,18.60
2023-01-13T07:41:54.837Z,18.60
2023-01-13T07:44:21.412Z,18.60
2023-01-13T07:46:48.062Z,18.60
2023-01-13T07:49:14.809Z,18.60
2023-01-13T07:51:41.487Z,18.60
2023-01-13T07:54:08.116Z,18.50
2023-01-13T07:56:34.703Z,18.60
2023-01-13T07:59:01.579Z,18.60
2023-01-13T08:01:28.312Z,18.60
2023-01-13T08:03:56.313Z,18.50
2023-01-13T08:06:23.200Z,18.60
2023-01-13T08:08:50.287Z,18.60
2023-01-13T08:11:16.995Z,18.50
2023-01-13T08:13:43.654Z,18.60
2023-01-13T08:16:11.688Z,18.50
2023-01-13T08:18:38.659Z,18.60
2023-01-13T08:21:15.040Z,18.50
2023-01-13T08:23:42.540Z,18.50
2023-01-13T08:26:13.495Z,18.60
2023-01-13T08:28:40.505Z,18.50
2023-01-13T08:31:08.220Z,18.60
2023-01-13T08:33:34.888Z,18.50
2023-01-13T08:36:05.448Z,18.50
2023-01-13T08:38:32.405Z,18.50
2023-01-13T08:40:59.063Z,18.50
2023-01-13T08:43:25.803Z,18.50
2023-01-13T08:45:59.537Z,18.50
2023-01-13T08:48:28.202Z,18.50
2023-01-13T08:51:01.691Z,18.50
2023-01-13T08:53:28.264Z,18.80
2023-01-13T08:55:54.849Z,18.60
2023-01-13T08:58:21.435Z,18.50
2023-01-13T09:00:48.227Z,18.60
2023-01-13T09:03:14.836Z,18.60
2023-01-13T09:05:41.409Z,18.50
2023-01-13T09:08:08.141Z,18.60
2023-01-13T09:10:35.593Z,18.70
2023-01-13T09:13:14.269Z,18.70
2023-01-13T09:15:41.840Z,18.70
2023-01-13T09:18:08.539Z,18.70
2023-01-13T09:20:35.439Z,18.80
2023-01-13T09:23:02.159Z,18.70
2023-01-13T09:25:28.844Z,18.70
2023-01-13T09:27:56.099Z,18.70
2023-01-13T09:30:22.864Z,18.70
2023-01-13T09:32:49.741Z,18.70
2023-01-13T09:35:17.417Z,18.70
2023-01-13T09:37:44.650Z,18.70
2023-01-13T09:40:18.371Z,18.70
2023-01-13T09:43:09.459Z,18.70
2023-01-13T09:45:51.490Z,18.60
2023-01-13T09:48:24.114Z,18.70
2023-01-13T09:51:09.553Z,18.70
2023-01-13T09:53:42.543Z,18.70
2023-01-13T09:56:10.309Z,18.60
2023-01-13T09:58:37.102Z,18.60
2023-01-13T10:01:14.613Z,18.60
2023-01-13T10:03:41.363Z,18.60
2023-01-13T10:06:13.527Z,18.60
2023-01-13T10:08:44.014Z,18.60
2023-01-13T10:11:35.877Z,18.70
2023-01-13T10:14:04.223Z,18.80
2023-01-13T10:16:30.929Z,18.70
2023-01-13T10:19:03.337Z,18.70
2023-01-13T10:21:55.795Z,18.60
2023-01-13T10:24:33.604Z,18.60
2023-01-13T10:27:03.329Z,18.60
2023-01-13T10:29:31.566Z,18.60
2023-01-13T10:31:59.100Z,18.60
2023-01-13T10:34:26.684Z,18.70
2023-01-13T10:37:01.631Z,18.60
2023-01-13T10:39:28.585Z,18.60
2023-01-13T10:42:05.071Z,18.80
2023-01-13T10:44:32.137Z,18.60
2023-01-13T10:46:59.424Z,18.70
2023-01-13T10:49:28.834Z,18.70
2023-01-13T10:51:55.463Z,18.60
2023-01-13T10:54:23.255Z,18.70
2023-01-13T10:56:50.556Z,18.80
2023-01-13T10:59:26.922Z,18.80
2023-01-13T11:02:16.191Z,18.70
2023-01-13T11:04:53.735Z,18.70
2023-01-13T11:07:35.503Z,18.70
2023-01-13T11:10:11.229Z,18.70
2023-01-13T11:12:48.412Z,18.70
2023-01-13T11:15:17.040Z,18.70
2023-01-13T11:17:45.406Z,18.70
2023-01-13T11:20:11.953Z,18.60
2023-01-13T11:22:46.850Z,18.70
2023-01-13T11:25:16.413Z,18.60
2023-01-13T11:27:44.201Z,18.70
2023-01-13T11:30:18.420Z,18.70
2023-01-13T11:33:04.529Z,18.70
2023-01-13T11:35:34.304Z,18.70
2023-01-13T11:38:13.229Z,18.60
2023-01-13T11:40:46.057Z,18.70
2023-01-13T11:43:12.752Z,18.70
2023-01-13T11:45:48.402Z,18.70
2023-01-13T11:48:15.998Z,18.70
2023-01-13T11:50:48.156Z,18.70
2023-01-13T11:53:27.572Z,18.70
2023-01-13T11:56:14.486Z,18.70
2023-01-13T11:58:51.411Z,18.70
2023-01-13T12:01:30.421Z,18.80
2023-01-13T12:04:08.094Z,18.70
2023-01-13T12:06:35.575Z,18.80
2023-01-13T12:09:21.259Z,18.70
2023-01-13T12:12:23.375Z,18.70
2023-01-13T12:15:08.922Z,18.60
2023-01-13T12:17:54.549Z,18.70
2023-01-13T12:20:36.501Z,18.40
2023-01-13T12:23:06.379Z,18.70
2023-01-13T12:25:47.067Z,18.70
2023-01-13T12:28:16.681Z,18.50
2023-01-13T12:30:45.752Z,18.70
2023-01-13T12:33:24.380Z,18.70
2023-01-13T12:35:59.265Z,18.70
2023-01-13T12:38:45.207Z,18.70
2023-01-13T12:41:11.804Z,18.60
2023-01-13T12:43:59.400Z,18.80
2023-01-13T12:46:25.949Z,18.80
2023-01-13T12:48:56.946Z,18.70
2023-01-13T12:51:25.489Z,18.70
2023-01-13T12:53:52.927Z,18.70
2023-01-13T12:56:39.932Z,18.70
2023-01-13T12:59:19.070Z,18.50
2023-01-13T13:01:46.750Z,18.70
2023-01-13T13:04:33.615Z,18.70
2023-01-13T13:07:07.863Z,18.50
2023-01-13T13:09:42.383Z,18.40
2023-01-13T13:12:46.580Z,18.50
2023-01-13T13:15:20.313Z,18.50
2023-01-13T13:18:00.534Z,18.50
2023-01-13T13:20:45.725Z,18.60
2023-01-13T13:23:35.682Z,18.50
2023-01-13T13:26:05.324Z,18.60
2023-01-13T13:28:36.973Z,18.70
2023-01-13T13:31:26.961Z,18.70
2023-01-13T13:34:06.964Z,18.60
2023-01-13T13:36:36.650Z,18.60
2023-01-13T13:39:29.040Z,18.60
2023-01-13T13:42:23.375Z,18.50
2023-01-13T13:45:09.151Z,18.60
2023-01-13T13:47:39.129Z,18.70
2023-01-13T13:50:13.658Z,18.60
2023-01-13T13:52:42.791Z,18.60
2023-01-13T13:55:19.697Z,18.50
2023-01-13T13:57:47.950Z,18.60
2023-01-13T14:00:14.732Z,18.60
2023-01-13T14:02:46.720Z,18.60
2023-01-13T14:05:16.661Z,18.60
2023-01-13T14:07:44.823Z,18.60
2023-01-13T14:10:22.648Z,18.70
2023-01-13T14:12:49.320Z,18.70
2023-01-13T14:15:26.472Z,18.70
2023-01-13T14:17:53.101Z,18.60
2023-01-13T14:20:19.830Z,18.70
2023-01-13T14:22:47.334Z,18.70
2023-01-13T14:25:27.088Z,18.70
2023-01-13T14:27:55.067Z,18.70
2023-01-13T14:30:23.039Z,18.70
2023-01-13T14:32:49.801Z,18.70
2023-01-13T14:35:17.101Z,18.80
2023-01-13T14:37:44.062Z,18.70
2023-01-13T14:40:29.237Z,18.80
2023-01-13T14:42:56.865Z,18.70
2023-01-13T14:45:24.799Z,18.70
2023-01-13T14:47:53.181Z,18.70
2023-01-13T14:50:23.378Z,18.80
2023-01-13T14:52:51.105Z,18.80
2023-01-13T14:55:17.666Z,18.80
2023-01-13T14:57:44.250Z,18.80
2023-01-13T15:00:13.958Z,18.70
2023-01-13T15:02:40.592Z,18.70
2023-01-13T15:05:19.189Z,18.70
2023-01-13T15:07:50.040Z,18.60
2023-01-13T15:10:20.395Z,18.70
2023-01-13T15:12:49.398Z,18.70
2023-01-13T15:15:22.298Z,18.70
2023-01-13T15:17:48.993Z,18.60
2023-01-13T15:20:19.646Z,18.70
2023-01-13T15:22:46.557Z,18.70
2023-01-13T15:25:13.885Z,18.70
2023-01-13T15:27:41.084Z,18.70
2023-01-13T15:30:18.204Z,18.70
2023-01-13T15:32:44.809Z,18.70
2023-01-13T15:35:15.467Z,18.60
2023-01-13T15:37:42.846Z,18.70
2023-01-13T15:40:20.088Z,18.70
2023-01-13T15:43:05.136Z,18.60
2023-01-13T15:45:51.179Z,18.80
2023-01-13T15:48:18.305Z,18.80
2023-01-13T15:50:44.870Z,19.00
2023-01-13T15:53:14.507Z,18.90
2023-01-13T15:55:45.387Z,18.60
2023-01-13T15:58:12.654Z,18.70
2023-01-13T16:00:39.458Z,18.70
2023-01-13T16:03:06.259Z,18.70
2023-01-13T16:05:32.932Z,18.80
2023-01-13T16:07:59.542Z,18.80
2023-01-13T16:10:26.770Z,18.80
2023-01-13T16:12:55.740Z,18.70
2023-01-13T16:15:22.667Z,18.80
2023-01-13T16:17:52.486Z,18.80
2023-01-13T16:20:19.289Z,18.80
2023-01-13T16:22:45.866Z,18.70
2023-01-13T16:25:30.715Z,18.80
2023-01-13T16:27:57.431Z,18.70
2023-01-13T16:30:25.766Z,18.80
2023-01-13T16:32:52.479Z,18.80
2023-01-13T16:35:19.111Z,18.70
2023-01-13T16:37:48.307Z,18.70
2023-01-13T16:40:24.095Z,18.70
2023-01-13T16:42:51.031Z,18.70
2023-01-13T16:45:18.137Z,18.70
2023-01-13T16:47:45.021Z,18.80
2023-01-13T16:50:20.957Z,18.80
2023-01-13T16:52:48.827Z,18.70
2023-01-13T16:55:15.448Z,18.80
2023-01-13T16:57:42.104Z,19.00
2023-01-13T17:00:10.150Z,18.90
2023-01-13T17:02:36.722Z,18.90
2023-01-13T17:05:03.472Z,19.00
2023-01-13T17:07:30.051Z,18.90
2023-01-13T17:09:57.082Z,18.90
2023-01-13T17:12:23.717Z,18.90
2023-01-13T17:14:50.296Z,18.90
2023-01-13T17:17:22.000Z,18.80
2023-01-13T17:19:50.631Z,18.90
2023-01-13T17:22:17.208Z,18.80
2023-01-13T17:24:43.857Z,18.90
2023-01-13T17:27:10.398Z,18.80
2023-01-13T17:29:37.084Z,18.80
2023-01-13T17:32:04.546Z,18.80
2023-01-13T17:34:31.303Z,18.80
2023-01-13T17:36:57.943Z,18.80
2023-01-13T17:39:25.496Z,18.70
2023-01-13T17:41:55.938Z,18.70
2023-01-13T17:44:23.499Z,18.80
2023-01-13T17:46:50.722Z,18.80
2023-01-13T17:49:18.540Z,18.70
2023-01-13T17:51:48.107Z,18.80
2023-01-13T17:54:14.814Z,18.80
2023-01-13T17:56:41.677Z,18.70
2023-01-13T17:59:10.298Z,18.80
2023-01-13T18:01:37.598Z,18.70
2023-01-13T18:04:04.604Z,19.00
2023-01-13T18:06:31.282Z,18.80
2023-01-13T18:09:01.055Z,18.70
2023-01-13T18:11:27.721Z,18.80
2023-01-13T18:13:56.430Z,18.80
2023-01-13T18:16:23.784Z,18.70
2023-01-13T18:18:51.548Z,18.70
2023-01-13T18:21:38.907Z,18.80
2023-01-13T18:24:24.490Z,18.70
2023-01-13T18:27:09.683Z,18.60
2023-01-13T18:29:36.241Z,18.70
2023-01-13T18:32:02.882Z,18.60
2023-01-13T18:34:29.496Z,18.70
2023-01-13T18:36:56.066Z,18.60
2023-01-13T18:39:22.644Z,18.70
2023-01-13T18:42:07.925Z,18.70
2023-01-13T18:44:34.547Z,18.70
2023-01-13T18:47:01.138Z,18.70
2023-01-13T18:49:27.729Z,18.70
2023-01-13T18:51:54.332Z,18.70
2023-01-13T18:54:20.967Z,18.70
2023-01-13T18:56:49.125Z,18.60
2023-01-13T18:59:16.107Z,18.70
2023-01-13T19:01:42.889Z,18.70
2023-01-13T19:04:15.387Z,18.50
2023-01-13T19:06:52.043Z,18.60
2023-01-13T19:09:20.496Z,18.60
2023-01-13T19:11:47.078Z,18.70
2023-01-13T19:14:33.894Z,18.60
2023-01-13T19:17:01.614Z,18.60
2023-01-13T19:19:28.687Z,18.60
2023-01-13T19:21:56.185Z,18.60
2023-01-13T19:24:23.001Z,18.60
2023-01-13T19:26:49.657Z,18.70
2023-01-13T19:29:16.296Z,18.40
2023-01-13T19:31:42.848Z,18.60
2023-01-13T19:34:09.700Z,18.70
2023-01-13T19:36:36.261Z,18.60
2023-01-13T19:39:03.076Z,18.80
2023-01-13T19:41:48.409Z,18.70
2023-01-13T19:44:33.601Z,18.60
2023-01-13T19:47:00.186Z,18.60
2023-01-13T19:49:26.830Z,18.60
2023-01-13T19:51:53.390Z,18.60
2023-01-13T19:54:19.969Z,18.60
2023-01-13T19:56:46.603Z,18.60
2023-01-13T19:59:22.031Z,18.50
2023-01-13T20:01:48.988Z,18.60
2023-01-13T20:04:19.389Z,18.60
2023-01-13T20:06:46.666Z,18.60
2023-01-13T20:09:13.550Z,18.60
2023-01-13T20:11:40.131Z,18.60
2023-01-13T20:14:06.793Z,18.50
2023-01-13T20:16:33.718Z,18.50
2023-01-13T20:19:00.485Z,18.60
2023-01-13T20:21:27.118Z,18.80
2023-01-13T20:23:53.735Z,18.50
2023-01-13T20:26:21.198Z,18.60
2023-01-13T20:28:47.987Z,18.50
2023-01-13T20:31:14.951Z,18.60
2023-01-13T20:33:41.666Z,18.50
2023-01-13T20:36:08.639Z,18.60
2023-01-13T20:38:38.156Z,18.50
2023-01-13T20:41:24.283Z,18.50
2023-01-13T20:43:51.421Z,18.50
2023-01-13T20:46:18.194Z,18.40
2023-01-13T20:48:45.208Z,18.50
2023-01-13T20:51:11.841Z,18.60
2023-01-13T20:53:38.462Z,18.50
2023-01-13T20:56:05.846Z,18.60
2023-01-13T20:58:32.489Z,18.50
2023-01-13T21:00:59.283Z,18.50
2023-01-13T21:03:25.927Z,18.50
2023-01-13T21:05:52.513Z,18.50
2023-01-13T21:08:19.121Z,18.40
2023-01-13T21:10:45.710Z,18.50
2023-01-13T21:13:31.031Z,18.40
2023-01-13T21:15:57.939Z,18.40
2023-01-13T21:18:43.183Z,18.30
2023-01-13T21:21:13.121Z,18.40
2023-01-13T21:23:40.955Z,18.30
2023-01-13T21:26:08.313Z,18.30
2023-01-13T21:28:36.545Z,18.30
2023-01-13T21:31:04.218Z,18.30
2023-01-13T21:33:31.265Z,18.40
2023-01-13T21:35:57.847Z,18.40
2023-01-13T21:38:26.644Z,18.50
2023-01-13T21:40:59.773Z,18.50
2023-01-13T21:43:45.179Z,18.40
2023-01-13T21:46:31.126Z,18.40
2023-01-13T21:48:57.729Z,18.40
2023-01-13T21:51:24.373Z,18.30
2023-01-13T21:53:51.010Z,18.30
2023-01-13T21:56:17.553Z,18.40
2023-01-13T21:58:44.251Z,18.30
2023-01-13T22:01:11.964Z,18.40
2023-01-13T22:03:57.439Z,18.40
2023-01-13T22:06:24.659Z,18.40
2023-01-13T22:08:51.637Z,18.40
2023-01-13T22:11:18.230Z,18.40
2023-01-13T22:14:03.332Z,18.40
2023-01-13T22:16:30.017Z,18.40
2023-01-13T22:18:57.124Z,18.40
2023-01-13T22:21:23.678Z,18.80
2023-01-13T22:23:50.291Z,18.40
2023-01-13T22:26:17.557Z,18.40
2023-01-13T22:28:44.247Z,18.30
2023-01-13T22:31:12.136Z,18.40
2023-01-13T22:33:39.329Z,18.40
2023-01-13T22:36:06.378Z,18.50
2023-01-13T22:38:34.812Z,18.40
2023-01-13T22:41:03.171Z,18.50
2023-01-13T22:43:30.329Z,18.40
2023-01-13T22:46:00.784Z,18.40
2023-01-13T22:48:27.626Z,18.40
2023-01-13T22:50:54.601Z,18.40
2023-01-13T22:53:21.261Z,18.40
2023-01-13T22:55:57.658Z,18.40
2023-01-13T22:58:24.395Z,18.40
2023-01-13T23:00:51.145Z,18.40
2023-01-13T23:03:18.122Z,18.40
2023-01-13T23:05:45.842Z,18.40
2023-01-13T23:08:12.921Z,18.40
2023-01-13T23:10:39.991Z,18.40
2023-01-13T23:13:06.709Z,18.50
2023-01-13T23:15:36.066Z,18.40
2023-01-13T23:18:02.776Z,18.40
2023-01-13T23:20:30.564Z,18.40
2023-01-13T23:23:00.296Z,18.50
2023-01-13T23:25:34.394Z,18.40
2023-01-13T23:28:00.981Z,18.40
2023-01-13T23:30:27.545Z,18.50
2023-01-13T23:32:54.329Z,18.40
2023-01-13T23:35:20.873Z,18.50
2023-01-13T23:37:47.446Z,18.40
2023-01-13T23:40:14.816Z,18.50
2023-01-13T23:42:41.432Z,18.50
2023-01-13T23:45:08.479Z,18.50
2023-01-13T23:47:36.180Z,18.50
2023-01-13T23:50:02.915Z,18.50
2023-01-13T23:52:29.559Z,18.40
2023-01-13T23:54:57.258Z,18.40
2023-01-13T23:57:23.894Z,18.50
2023-01-13T23:59:50.492Z,18.30
